Time;durP1;ratioP1;P1;durP2;ratioP2;P2;SDS_P1;SDS_P2;PMS_P1;PMS_P2;Temp;Humidity;BMP_temperature;BMP_pressure;BME280_temperature;BME280_humidity;BME280_pressure;Samples;Min_cycle;Max_cycle;Signal;HPM_P1;HPM_P2
2023/02/08 00:00:33;;;;;;;0.20;0.20;;;-2.20;99.90;;;;;;5014313;28;20018;-73
2023/02/08 00:02:59;;;;;;;0.10;0.10;;;-2.30;99.90;;;;;;4996479;28;20540;-73
2023/02/08 00:05:24;;;;;;;0.10;0.10;;;-2.30;99.90;;;;;;5012095;28;20021;-73
2023/02/08 00:07:50;;;;;;;0.20;0.20;;;-2.40;99.90;;;;;;5014332;28;20022;-73
2023/02/08 00:10:15;;;;;;;0.20;0.20;;;-2.50;99.90;;;;;;5013863;28;20018;-74
2023/02/08 00:12:41;;;;;;;0.10;0.10;;;-2.50;99.90;;;;;;5022910;28;20472;-74
2023/02/08 00:15:07;;;;;;;0.20;0.20;;;-2.50;99.90;;;;;;5032531;28;20024;-73
2023/02/08 00:17:32;;;;;;;0.10;0.10;;;-2.50;99.90;;;;;;5033384;28;20117;-73
2023/02/08 00:19:58;;;;;;;0.17;0.17;;;-2.60;99.90;;;;;;5034557;28;20026;-73
2023/02/08 00:22:23;;;;;;;0.20;0.20;;;-2.60;99.90;;;;;;5033602;28;20025;-74
2023/02/08 00:24:50;;;;;;;0.20;0.20;;;-2.60;99.90;;;;;;5017883;28;20026;-73
2023/02/08 00:27:16;;;;;;;0.20;0.20;;;-2.60;99.90;;;;;;5013968;28;20562;-73
2023/02/08 00:29:41;;;;;;;0.20;0.20;;;-2.60;99.90;;;;;;5013835;28;20069;-74
2023/02/08 00:32:07;;;;;;;0.20;0.20;;;-2.60;99.90;;;;;;5013490;28;20069;-73
2023/02/08 00:34:34;;;;;;;0.15;0.15;;;-2.60;99.90;;;;;;5013586;28;20105;-73
2023/02/08 00:37:00;;;;;;;0.20;0.20;;;-2.60;99.90;;;;;;5013704;28;20022;-73
2023/02/08 00:39:25;;;;;;;0.30;0.30;;;-2.70;99.90;;;;;;4995883;28;20025;-73
2023/02/08 00:41:51;;;;;;;0.20;0.20;;;-2.80;99.90;;;;;;5013684;28;20033;-74
2023/02/08 00:44:16;;;;;;;0.20;0.20;;;-2.80;99.90;;;;;;5013391;28;20119;-73
2023/02/08 00:46:42;;;;;;;0.20;0.20;;;-2.70;99.90;;;;;;5013557;28;20037;-73
2023/02/08 00:49:07;;;;;;;0.20;0.20;;;-2.70;99.90;;;;;;5013390;28;20373;-74
2023/02/08 00:51:33;;;;;;;0.20;0.20;;;-2.70;99.90;;;;;;5013430;28;20112;-74
2023/02/08 00:53:58;;;;;;;0.20;0.20;;;-2.70;99.90;;;;;;4995974;28;20049;-73
2023/02/08 00:56:24;;;;;;;0.40;0.38;;;-2.60;99.90;;;;;;5013241;28;20034;-74
2023/02/08 00:58:49;;;;;;;0.10;0.10;;;-2.60;99.90;;;;;;5013533;28;20034;-73
2023/02/08 01:01:15;;;;;;;0.20;0.20;;;-2.50;99.90;;;;;;5013449;28;20037;-73
2023/02/08 01:03:41;;;;;;;0.20;0.20;;;-2.40;99.90;;;;;;5013526;28;20080;-73
2023/02/08 01:06:10;;;;;;;0.57;0.57;;;-2.40;99.90;;;;;;5013088;28;20045;-73
2023/02/08 01:08:36;;;;;;;0.20;0.20;;;-2.40;99.90;;;;;;5019882;28;20021;-73
2023/02/08 01:11:06;;;;;;;0.20;0.20;;;-2.40;99.90;;;;;;5033347;28;20040;-72
2023/02/08 01:13:31;;;;;;;0.20;0.20;;;-2.40;99.90;;;;;;5033026;28;20017;-73
2023/02/08 01:16:20;;;;;;;0.20;0.20;;;-2.40;99.90;;;;;;5033608;28;20452;-73
2023/02/08 01:18:48;;;;;;;0.20;0.20;;;-2.40;99.90;;;;;;5021132;28;20514;-73
2023/02/08 01:21:19;;;;;;;0.20;0.20;;;-2.40;99.90;;;;;;5017496;28;20040;-73
2023/02/08 01:23:45;;;;;;;0.17;0.17;;;-2.40;99.90;;;;;;5016950;28;20084;-73
2023/02/08 01:26:12;;;;;;;1.25;1.17;;;-2.40;99.90;;;;;;5017072;28;20538;-73
2023/02/08 01:28:38;;;;;;;0.40;0.40;;;-2.40;99.90;;;;;;4999528;28;20061;-73
2023/02/08 01:31:28;;;;;;;0.15;0.15;;;-2.40;99.90;;;;;;5016841;28;20026;-73
2023/02/08 01:33:54;;;;;;;1.33;1.30;;;-2.40;99.90;;;;;;5017215;28;20026;-73
2023/02/08 01:36:20;;;;;;;0.20;0.20;;;-2.40;99.90;;;;;;5016699;28;20018;-73
2023/02/08 01:38:46;;;;;;;0.20;0.20;;;-2.50;99.90;;;;;;5016924;28;20431;-73
2023/02/08 01:41:19;;;;;;;0.28;0.28;;;-2.50;99.90;;;;;;5017173;28;20073;-73
2023/02/08 01:44:02;;;;;;;;;;;-2.50;99.90;;;;;;5017499;28;20487;-73
2023/02/08 01:46:29;;;;;;;1.17;1.17;;;-2.30;99.90;;;;;;5016477;28;19905;-73
2023/02/08 01:49:04;;;;;;;0.10;0.10;;;-2.30;99.90;;;;;;5016886;28;20099;-73
2023/02/08 01:51:35;;;;;;;3.40;2.65;;;-2.40;99.90;;;;;;5016749;28;20022;-73
2023/02/08 01:54:03;;;;;;;1.45;1.42;;;-2.30;99.90;;;;;;5016515;28;20018;-73
2023/02/08 01:56:33;;;;;;;1.88;0.85;;;-2.20;99.90;;;;;;5016011;28;20076;-73
2023/02/08 01:59:01;;;;;;;0.38;0.38;;;-2.20;99.90;;;;;;5016768;28;20032;-73
2023/02/08 02:01:29;;;;;;;0.15;0.15;;;-2.20;99.90;;;;;;5016544;28;20042;-73
2023/02/08 02:03:56;;;;;;;0.10;0.10;;;-2.20;99.90;;;;;;5016121;28;20041;-73
2023/02/08 02:06:27;;;;;;;0.20;0.20;;;-2.10;99.90;;;;;;5016411;28;20298;-73
2023/02/08 02:09:14;;;;;;;0.10;0.10;;;-2.20;99.90;;;;;;5016826;28;20373;-73
2023/02/08 02:11:41;;;;;;;0.10;0.10;;;-2.10;99.90;;;;;;5016108;28;20104;-73
2023/02/08 02:14:08;;;;;;;0.20;0.20;;;-2.10;99.90;;;;;;5015966;28;20017;-73
2023/02/08 02:16:34;;;;;;;0.20;0.20;;;-2.30;99.90;;;;;;5016581;28;20435;-73
2023/02/08 02:19:00;;;;;;;0.20;0.20;;;-2.30;99.90;;;;;;4998583;28;20026;-73
2023/02/08 02:21:31;;;;;;;0.20;0.20;;;-2.40;99.90;;;;;;5016201;28;20040;-73
2023/02/08 02:24:35;;;;;;;0.20;0.20;;;-2.40;99.90;;;;;;5016053;28;20076;-73
2023/02/08 02:27:18;;;;;;;0.10;0.10;;;-2.60;99.90;;;;;;5016014;28;20037;-73
2023/02/08 02:30:16;;;;;;;0.20;0.20;;;-2.70;99.90;;;;;;5003448;28;20088;-73
2023/02/08 02:33:12;;;;;;;0.20;0.20;;;-2.80;99.90;;;;;;5016152;28;20052;-73
2023/02/08 02:35:55;;;;;;;0.20;0.20;;;-2.80;99.90;;;;;;5016054;28;20491;-73
2023/02/08 02:38:24;;;;;;;;;;;-3.00;99.90;;;;;;5016247;28;20022;-73
2023/02/08 02:43:40;;;;;;;0.10;0.10;;;-3.10;99.90;;;;;;5015216;28;20393;-73
2023/02/08 02:44:08;;;;;;;0.22;0.22;;;-3.10;99.90;;;;;;5015605;28;20036;-73
2023/02/08 02:46:42;;;;;;;0.20;0.20;;;-3.00;99.90;;;;;;5015837;28;20120;-73
2023/02/08 02:49:22;;;;;;;0.20;0.20;;;-3.00;99.90;;;;;;5016030;28;20475;-73
2023/02/08 02:51:57;;;;;;;0.10;0.10;;;-2.90;99.90;;;;;;5024487;28;20112;-73
2023/02/08 02:54:45;;;;;;;0.20;0.20;;;-2.90;99.90;;;;;;5035474;28;20026;-73
2023/02/08 02:57:16;;;;;;;0.20;0.20;;;-3.00;99.90;;;;;;5065595;22;20072;-68
2023/02/08 02:59:44;;;;;;;0.40;0.40;;;-3.10;99.90;;;;;;5055753;28;20120;-68
2023/02/08 03:02:11;;;;;;;0.17;0.17;;;-3.20;99.90;;;;;;5058250;28;20029;-67
2023/02/08 03:04:36;;;;;;;0.17;0.17;;;-3.20;99.90;;;;;;5075662;28;20025;-67
2023/02/08 03:07:08;;;;;;;0.20;0.20;;;-3.20;99.90;;;;;;5074842;28;20166;-67
2023/02/08 03:10:04;;;;;;;0.20;0.20;;;-3.10;99.90;;;;;;5075193;28;20071;-67
2023/02/08 03:12:48;;;;;;;0.20;0.20;;;-3.10;99.90;;;;;;5074813;28;20070;-67
2023/02/08 03:15:22;;;;;;;0.10;0.10;;;-3.20;99.90;;;;;;5075074;28;20410;-67
2023/02/08 03:18:06;;;;;;;0.20;0.20;;;-3.20;99.90;;;;;;5075943;28;20495;-67
2023/02/08 03:20:39;;;;;;;0.20;0.20;;;-3.20;99.90;;;;;;5075981;28;20031;-67
2023/02/08 03:23:24;;;;;;;0.10;0.10;;;-3.20;99.90;;;;;;5074767;28;20099;-67
2023/02/08 03:26:07;;;;;;;0.10;0.10;;;-3.20;99.90;;;;;;5073760;28;20047;-67
2023/02/08 03:28:39;;;;;;;0.17;0.17;;;-3.20;99.90;;;;;;5054786;28;20025;-67
2023/02/08 03:31:12;;;;;;;0.20;0.20;;;-3.20;99.90;;;;;;5054488;28;20032;-67
2023/02/08 03:33:50;;;;;;;0.20;0.20;;;-3.30;99.90;;;;;;5054042;28;20021;-68
2023/02/08 03:36:28;;;;;;;0.10;0.10;;;-3.30;99.90;;;;;;5055266;28;20017;-68
2023/02/08 03:38:54;;;;;;;0.10;0.10;;;-3.30;99.90;;;;;;5054060;28;20032;-67
2023/02/08 03:41:26;;;;;;;0.20;0.20;;;-3.30;99.90;;;;;;5053810;28;20430;-68
2023/02/08 03:44:24;;;;;;;0.20;0.20;;;-3.30;99.90;;;;;;5054205;28;20028;-68
2023/02/08 03:47:17;;;;;;;0.20;0.20;;;-3.30;99.90;;;;;;5030150;28;20049;-68
2023/02/08 03:49:44;;;;;;;0.20;0.20;;;-3.30;99.90;;;;;;5034169;28;20108;-68
2023/02/08 03:52:10;;;;;;;0.20;0.20;;;-3.40;99.90;;;;;;5034681;28;20509;-68
2023/02/08 03:54:44;;;;;;;0.20;0.20;;;-3.50;99.90;;;;;;5034025;28;20106;-67
2023/02/08 03:57:15;;;;;;;0.20;0.20;;;-3.50;99.90;;;;;;5034235;28;20144;-68
2023/02/08 03:59:46;;;;;;;0.30;0.30;;;-3.50;99.90;;;;;;5034368;28;20386;-68
2023/02/08 04:02:17;;;;;;;0.20;0.20;;;-3.60;99.90;;;;;;5054159;28;20044;-68
2023/02/08 04:04:47;;;;;;;0.20;0.20;;;-3.60;99.90;;;;;;5053669;28;20528;-68
2023/02/08 04:07:12;;;;;;;0.20;0.20;;;-3.60;99.90;;;;;;5053956;28;20029;-68
2023/02/08 04:09:38;;;;;;;0.20;0.20;;;-3.60;99.90;;;;;;5053896;28;20031;-68
2023/02/08 04:12:04;;;;;;;4.88;4.60;;;-3.60;99.90;;;;;;5053603;28;20029;-68
2023/02/08 04:14:30;;;;;;;0.20;0.20;;;-3.60;99.90;;;;;;5053778;28;20027;-68
2023/02/08 04:16:55;;;;;;;0.10;0.10;;;-3.70;99.90;;;;;;5053403;28;20021;-68
2023/02/08 04:19:21;;;;;;;0.10;0.10;;;-3.70;99.90;;;;;;5053847;28;20024;-68
2023/02/08 04:21:46;;;;;;;0.10;0.10;;;-3.70;99.90;;;;;;5053560;28;20074;-68
2023/02/08 04:24:12;;;;;;;0.20;0.20;;;-3.70;99.90;;;;;;5053571;28;20060;-68
2023/02/08 04:26:37;;;;;;;0.30;0.30;;;-3.70;99.90;;;;;;5053374;28;20086;-68
2023/02/08 04:29:03;;;;;;;0.22;0.22;;;-3.60;99.90;;;;;;5053560;28;20032;-68
2023/02/08 04:31:29;;;;;;;0.22;0.22;;;-3.50;99.90;;;;;;5053565;28;20543;-68
2023/02/08 04:33:54;;;;;;;0.20;0.20;;;-3.60;99.90;;;;;;5053189;28;20426;-68
2023/02/08 04:36:20;;;;;;;0.20;0.20;;;-3.50;99.90;;;;;;5053512;28;20475;-68
2023/02/08 04:38:45;;;;;;;0.10;0.10;;;-3.60;99.90;;;;;;5053092;28;20079;-68
2023/02/08 04:41:11;;;;;;;0.20;0.20;;;-3.60;99.90;;;;;;5053492;28;20033;-68
2023/02/08 04:43:36;;;;;;;0.20;0.20;;;-3.60;99.90;;;;;;5053099;28;20037;-68
2023/02/08 04:46:02;;;;;;;0.20;0.20;;;-3.60;99.90;;;;;;5053019;28;20040;-68
2023/02/08 04:48:28;;;;;;;0.30;0.30;;;-3.60;99.90;;;;;;5053350;28;20032;-68
2023/02/08 04:50:55;;;;;;;0.25;0.25;;;-3.80;99.90;;;;;;5052630;28;20021;-67
2023/02/08 04:53:21;;;;;;;0.20;0.20;;;-3.90;99.90;;;;;;5053376;28;20053;-67
2023/02/08 04:55:46;;;;;;;0.20;0.20;;;-4.00;99.90;;;;;;5052802;28;20510;-67
2023/02/08 04:58:12;;;;;;;0.20;0.20;;;-4.10;99.90;;;;;;5053016;28;20029;-67
2023/02/08 05:00:38;;;;;;;0.20;0.20;;;-4.10;99.90;;;;;;5052896;28;20470;-67
2023/02/08 05:03:03;;;;;;;0.17;0.17;;;-4.10;99.90;;;;;;5052637;28;20055;-67
2023/02/08 05:05:29;;;;;;;0.20;0.20;;;-4.10;99.90;;;;;;5053140;28;20441;-67
2023/02/08 05:07:55;;;;;;;0.28;0.28;;;-4.10;99.90;;;;;;5052844;28;20021;-67
2023/02/08 05:10:20;;;;;;;0.30;0.30;;;-4.10;99.90;;;;;;5052939;28;20495;-68
2023/02/08 05:12:46;;;;;;;0.13;0.13;;;-4.00;99.90;;;;;;5052592;28;20029;-68
2023/02/08 05:15:11;;;;;;;0.30;0.30;;;-3.90;99.90;;;;;;5052754;28;20032;-68
2023/02/08 05:17:37;;;;;;;0.20;0.20;;;-3.80;99.90;;;;;;5052796;28;20033;-67
2023/02/08 05:20:04;;;;;;;0.22;0.22;;;-3.80;99.90;;;;;;5052980;28;20040;-67
2023/02/08 05:22:33;;;;;;;0.20;0.20;;;-3.70;99.90;;;;;;5052653;28;20029;-67
2023/02/08 05:24:59;;;;;;;0.20;0.20;;;-3.70;99.90;;;;;;5052712;28;20530;-68
2023/02/08 05:27:24;;;;;;;0.20;0.20;;;-3.80;99.90;;;;;;5052775;28;20037;-68
2023/02/08 05:29:50;;;;;;;0.30;0.30;;;-3.90;99.90;;;;;;5052463;28;20087;-68
2023/02/08 05:32:15;;;;;;;0.30;0.30;;;-3.90;99.90;;;;;;5052614;28;20037;-68
2023/02/08 05:34:41;;;;;;;0.20;0.20;;;-3.90;99.90;;;;;;5052682;28;20032;-68
2023/02/08 05:37:07;;;;;;;0.40;0.40;;;-3.90;99.90;;;;;;5052727;28;20457;-68
2023/02/08 05:39:32;;;;;;;0.20;0.20;;;-3.90;99.90;;;;;;5052871;28;20033;-68
2023/02/08 05:41:58;;;;;;;0.17;0.17;;;-3.80;99.90;;;;;;5052573;28;20025;-68
2023/02/08 05:44:23;;;;;;;0.30;0.30;;;-3.80;99.90;;;;;;5052606;28;20394;-68
2023/02/08 05:46:49;;;;;;;0.30;0.30;;;-3.70;99.90;;;;;;5052539;28;20410;-68
2023/02/08 05:49:14;;;;;;;0.30;0.30;;;-3.60;99.90;;;;;;5052375;28;20372;-68
2023/02/08 05:51:40;;;;;;;0.50;0.50;;;-3.60;99.90;;;;;;5052415;28;20037;-68
2023/02/08 05:54:06;;;;;;;0.32;0.32;;;-3.50;99.90;;;;;;5052929;28;20025;-68
2023/02/08 05:56:32;;;;;;;0.85;0.85;;;-3.50;99.90;;;;;;5052263;28;20424;-68
2023/02/08 05:59:01;;;;;;;0.20;0.20;;;-3.50;99.90;;;;;;5052755;28;20033;-68
2023/02/08 06:01:26;;;;;;;0.17;0.17;;;-3.50;99.90;;;;;;5052488;28;20575;-68
2023/02/08 06:03:53;;;;;;;0.90;0.90;;;-3.40;99.90;;;;;;5054613;28;20060;-67
2023/02/08 06:06:19;;;;;;;0.10;0.10;;;-3.30;99.90;;;;;;5055826;28;20025;-67
2023/02/08 06:08:45;;;;;;;0.10;0.10;;;-3.30;99.90;;;;;;5056269;28;20031;-67
2023/02/08 06:11:10;;;;;;;0.30;0.30;;;-3.30;99.90;;;;;;5055894;28;20033;-67
2023/02/08 06:13:38;;;;;;;0.20;0.20;;;-3.30;99.90;;;;;;5056068;28;20028;-67
2023/02/08 06:16:04;;;;;;;0.10;0.10;;;-3.30;99.90;;;;;;5056236;28;20017;-68
2023/02/08 06:18:29;;;;;;;3.38;1.13;;;-3.40;99.90;;;;;;5055757;28;20438;-68
2023/02/08 06:20:55;;;;;;;0.38;0.38;;;-3.30;99.90;;;;;;5055891;28;20029;-68
2023/02/08 06:23:21;;;;;;;0.25;0.25;;;-3.30;99.90;;;;;;5055670;28;20032;-67
2023/02/08 06:25:47;;;;;;;8.10;2.50;;;-3.30;99.90;;;;;;5056051;28;20497;-68
2023/02/08 06:28:12;;;;;;;0.30;0.30;;;-3.30;99.90;;;;;;5055770;28;20029;-68
2023/02/08 06:30:38;;;;;;;0.20;0.20;;;-3.30;99.90;;;;;;5055512;28;20029;-68
2023/02/08 06:33:04;;;;;;;0.30;0.30;;;-3.30;99.90;;;;;;5055726;28;20020;-67
2023/02/08 06:35:30;;;;;;;0.20;0.20;;;-3.40;99.90;;;;;;5055854;28;20036;-67
2023/02/08 06:37:57;;;;;;;0.20;0.20;;;-3.50;99.90;;;;;;5055070;28;20031;-67
2023/02/08 06:40:23;;;;;;;0.20;0.20;;;-3.60;99.90;;;;;;5056018;28;20029;-67
2023/02/08 06:42:49;;;;;;;0.20;0.20;;;-3.70;99.90;;;;;;5055388;28;20552;-68
2023/02/08 06:45:15;;;;;;;0.30;0.30;;;-3.70;99.90;;;;;;5055487;28;20027;-68
2023/02/08 06:47:40;;;;;;;0.20;0.20;;;-3.80;99.90;;;;;;5055332;28;20508;-68
2023/02/08 06:50:06;;;;;;;0.20;0.20;;;-3.90;99.90;;;;;;5055458;28;20108;-68
2023/02/08 06:52:32;;;;;;;0.50;0.50;;;-4.00;99.90;;;;;;5055178;28;20044;-68
2023/02/08 06:54:57;;;;;;;0.30;0.30;;;-4.10;99.90;;;;;;5055305;28;20024;-68
2023/02/08 06:57:23;;;;;;;0.30;0.30;;;-4.10;99.90;;;;;;5054925;28;20068;-67
2023/02/08 06:59:48;;;;;;;0.20;0.20;;;-4.20;99.90;;;;;;5055248;28;20052;-67
2023/02/08 07:02:16;;;;;;;0.35;0.35;;;-4.20;99.90;;;;;;5055146;28;20479;-67
2023/02/08 07:04:44;;;;;;;0.20;0.20;;;-4.10;99.90;;;;;;5055296;28;20033;-68
2023/02/08 07:07:10;;;;;;;0.25;0.25;;;-4.10;99.90;;;;;;5055131;28;20025;-67
2023/02/08 07:09:36;;;;;;;0.20;0.20;;;-4.00;99.90;;;;;;5054817;28;20070;-68
2023/02/08 07:12:03;;;;;;;1.80;1.52;;;-3.90;99.90;;;;;;5055301;28;20417;-68
2023/02/08 07:14:31;;;;;;;0.20;0.20;;;-3.70;99.90;;;;;;5054830;28;20356;-68
2023/02/08 07:16:56;;;;;;;1.35;1.00;;;-3.60;99.90;;;;;;5053289;28;20029;-68
2023/02/08 07:19:22;;;;;;;0.47;0.47;;;-3.50;99.90;;;;;;5054892;28;20021;-68
2023/02/08 07:21:47;;;;;;;1.85;1.75;;;-3.40;99.90;;;;;;5054558;28;20029;-67
2023/02/08 07:24:13;;;;;;;2.67;0.88;;;-3.40;99.90;;;;;;5054790;28;20029;-68
2023/02/08 07:26:38;;;;;;;1.95;1.75;;;-3.40;99.90;;;;;;5054448;28;20021;-68
2023/02/08 07:29:04;;;;;;;0.60;0.60;;;-3.30;99.90;;;;;;5054854;28;20031;-68
2023/02/08 07:31:29;;;;;;;2.05;0.95;;;-3.20;99.90;;;;;;5054483;28;20029;-68
2023/02/08 07:33:55;;;;;;;17.55;5.20;;;-3.10;99.90;;;;;;5054473;28;20025;-68
2023/02/08 07:36:20;;;;;;;0.43;0.43;;;-2.90;99.90;;;;;;5054439;28;20032;-68
2023/02/08 07:38:46;;;;;;;0.52;0.50;;;-2.90;99.90;;;;;;5054149;28;20025;-68
2023/02/08 07:41:13;;;;;;;0.40;0.40;;;-2.80;99.90;;;;;;5054623;28;20363;-68
2023/02/08 07:43:40;;;;;;;0.20;0.20;;;-2.80;99.90;;;;;;5048939;28;20033;-68
2023/02/08 07:46:12;;;;;;;0.82;0.82;;;-2.70;99.90;;;;;;5054422;28;20033;-68
2023/02/08 07:48:37;;;;;;;1.92;1.77;;;-2.70;99.90;;;;;;5053938;28;20025;-67
2023/02/08 07:51:03;;;;;;;0.10;0.10;;;-2.60;99.90;;;;;;5054329;28;20101;-67
2023/02/08 07:53:30;;;;;;;0.38;0.38;;;-2.60;99.90;;;;;;5054362;28;20021;-67
2023/02/08 07:55:56;;;;;;;0.20;0.20;;;-2.50;99.90;;;;;;5053955;28;20025;-67
2023/02/08 07:58:21;;;;;;;0.20;0.20;;;-2.50;99.90;;;;;;5053916;28;20059;-67
2023/02/08 08:00:47;;;;;;;0.20;0.20;;;-2.40;99.90;;;;;;5053816;28;20021;-68
2023/02/08 08:03:12;;;;;;;1.10;1.10;;;-2.40;99.90;;;;;;5053865;28;20475;-68
2023/02/08 08:05:41;;;;;;;0.13;0.13;;;-2.20;99.90;;;;;;5053646;28;20432;-68
2023/02/08 08:08:07;;;;;;;0.10;0.10;;;-2.10;99.90;;;;;;5054200;28;20029;-67
2023/02/08 08:10:33;;;;;;;0.20;0.20;;;-2.00;99.90;;;;;;5053631;28;20106;-67
2023/02/08 08:12:59;;;;;;;0.52;0.52;;;-1.90;99.90;;;;;;5053700;28;20052;-67
2023/02/08 08:15:24;;;;;;;0.47;0.47;;;-1.90;99.90;;;;;;5053856;28;20479;-67
2023/02/08 08:17:50;;;;;;;1.40;1.30;;;-1.80;99.90;;;;;;5053727;28;20047;-67
2023/02/08 08:20:16;;;;;;;0.45;0.40;;;-1.70;99.90;;;;;;5053644;28;20453;-67
2023/02/08 08:22:41;;;;;;;0.40;0.40;;;-1.70;99.90;;;;;;5053633;28;20079;-68
2023/02/08 08:25:07;;;;;;;1.20;1.20;;;-1.60;99.90;;;;;;5053937;28;20091;-68
2023/02/08 08:27:34;;;;;;;0.10;0.10;;;-1.60;99.90;;;;;;5040705;28;20029;-67
2023/02/08 08:29:59;;;;;;;0.20;0.20;;;-1.50;99.90;;;;;;5044096;28;20491;-67
2023/02/08 08:32:25;;;;;;;0.10;0.10;;;-1.40;99.90;;;;;;5051428;28;20112;-67
2023/02/08 08:34:51;;;;;;;0.20;0.20;;;-1.30;99.90;;;;;;5043084;28;20028;-67
2023/02/08 08:37:16;;;;;;;0.17;0.17;;;-1.30;99.90;;;;;;5051355;28;20021;-67
2023/02/08 08:39:42;;;;;;;0.10;0.10;;;-1.20;99.90;;;;;;5047175;28;20024;-67
2023/02/08 08:42:08;;;;;;;0.20;0.20;;;-1.20;99.90;;;;;;5044906;28;20036;-67
2023/02/08 08:44:33;;;;;;;0.10;0.10;;;-1.10;99.90;;;;;;5046907;28;20029;-67
2023/02/08 08:47:00;;;;;;;0.10;0.10;;;-1.00;99.90;;;;;;5049688;28;20031;-67
2023/02/08 08:49:26;;;;;;;0.20;0.20;;;-0.90;99.90;;;;;;5047238;28;20449;-67
2023/02/08 08:51:53;;;;;;;1.08;1.08;;;-0.80;99.90;;;;;;5044443;28;20029;-67
2023/02/08 08:54:19;;;;;;;10.38;9.55;;;-0.70;99.90;;;;;;5051017;28;20017;-67
2023/02/08 08:56:44;;;;;;;0.10;0.10;;;-0.60;99.90;;;;;;5046534;28;20017;-67
2023/02/08 08:59:10;;;;;;;0.17;0.17;;;-0.50;99.90;;;;;;5087849;22;20068;-73
2023/02/08 09:01:36;;;;;;;0.20;0.20;;;-0.40;99.90;;;;;;5051009;28;20075;-72
2023/02/08 09:04:01;;;;;;;0.13;0.13;;;-0.40;99.90;;;;;;5048898;28;20037;-72
2023/02/08 09:06:27;;;;;;;3.75;1.25;;;-0.30;99.90;;;;;;5044300;28;20521;-72
2023/02/08 09:08:52;;;;;;;0.30;0.30;;;-0.20;99.90;;;;;;5050788;28;20368;-72
2023/02/08 09:11:18;;;;;;;0.20;0.20;;;-0.10;99.90;;;;;;5048013;28;20116;-72
2023/02/08 09:13:44;;;;;;;0.40;0.40;;;0.00;99.90;;;;;;5048935;28;20497;-73
2023/02/08 09:16:13;;;;;;;0.10;0.10;;;0.00;99.90;;;;;;5045216;28;20025;-73
2023/02/08 09:18:39;;;;;;;0.10;0.10;;;0.10;99.90;;;;;;5048799;28;20025;-73
2023/02/08 09:21:06;;;;;;;0.20;0.20;;;0.20;99.90;;;;;;5046292;28;20025;-73
2023/02/08 09:23:31;;;;;;;0.32;0.32;;;0.30;99.90;;;;;;5043034;28;20506;-72
2023/02/08 09:25:57;;;;;;;3.90;3.50;;;0.40;99.90;;;;;;5050698;28;20033;-73
2023/02/08 09:28:23;;;;;;;0.30;0.30;;;0.50;99.90;;;;;;5043438;28;20029;-73
2023/02/08 09:30:48;;;;;;;0.20;0.20;;;0.50;99.90;;;;;;5050779;28;20025;-73
2023/02/08 09:33:14;;;;;;;0.55;0.55;;;0.50;99.90;;;;;;5039681;28;20028;-72
2023/02/08 09:35:39;;;;;;;0.10;0.10;;;0.60;99.90;;;;;;5052593;28;20056;-73
2023/02/08 09:38:05;;;;;;;0.13;0.13;;;0.70;99.90;;;;;;5047105;28;20060;-72
2023/02/08 09:40:41;;;;;;;0.30;0.30;;;0.80;99.90;;;;;;5050215;28;20075;-72
2023/02/08 09:43:07;;;;;;;0.63;0.63;;;0.90;99.90;;;;;;5064045;28;20035;-72
2023/02/08 09:45:55;;;;;;;2.75;1.35;;;0.90;99.90;;;;;;5052130;28;20025;-72
2023/02/08 09:48:28;;;;;;;12.85;4.50;;;1.00;99.90;;;;;;5056524;28;20029;-72
2023/02/08 09:50:59;;;;;;;334.20;43.10;;;1.00;99.90;;;;;;5056625;28;20025;-72
2023/02/08 09:53:33;;;;;;;0.10;0.10;;;1.10;99.90;;;;;;5056519;28;20017;-72
2023/02/08 09:56:04;;;;;;;0.20;0.20;;;1.20;99.90;;;;;;5057072;28;20017;-71
2023/02/08 09:58:44;;;;;;;0.20;0.20;;;1.30;99.90;;;;;;5056949;28;20025;-71
2023/02/08 10:01:23;;;;;;;0.65;0.65;;;1.40;99.90;;;;;;5069881;28;20137;-70
2023/02/08 10:03:52;;;;;;;0.20;0.20;;;1.50;99.90;;;;;;5056176;28;20048;-71
2023/02/08 10:06:19;;;;;;;0.10;0.10;;;1.60;99.90;;;;;;5042934;28;20028;-71
2023/02/08 10:08:47;;;;;;;0.20;0.20;;;1.70;99.90;;;;;;5056387;28;20029;-71
2023/02/08 10:11:42;;;;;;;0.20;0.20;;;1.80;99.90;;;;;;5056706;28;20431;-71
2023/02/08 10:14:38;;;;;;;0.40;0.40;;;1.90;99.90;;;;;;5056119;28;20108;-71
2023/02/08 10:17:36;;;;;;;0.13;0.13;;;2.00;99.90;;;;;;5055875;28;20092;-71
2023/02/08 10:20:04;;;;;;;0.20;0.20;;;2.10;99.90;;;;;;5056192;28;20021;-71
2023/02/08 10:23:12;;;;;;;0.32;0.32;;;2.20;99.90;;;;;;5055640;28;20100;-71
2023/02/08 10:25:45;;;;;;;0.20;0.20;;;2.20;99.90;;;;;;5055007;28;20170;-72
2023/02/08 10:28:29;;;;;;;1.38;1.27;;;2.30;99.90;;;;;;5055759;28;20399;-72
2023/02/08 10:31:13;;;;;;;0.20;0.20;;;2.30;99.90;;;;;;5055862;28;20112;-71
2023/02/08 10:34:00;;;;;;;3.67;3.47;;;2.40;99.90;;;;;;5055912;28;20076;-71
2023/02/08 10:36:32;;;;;;;0.20;0.20;;;2.50;99.90;;;;;;5035991;28;20021;-71
2023/02/08 10:38:59;;;;;;;0.20;0.20;;;2.50;99.90;;;;;;5035664;28;20429;-72
2023/02/08 10:41:33;;;;;;;5.18;0.82;;;2.60;99.90;;;;;;5046502;28;20474;-71
2023/02/08 10:44:19;;;;;;;0.20;0.20;;;2.60;99.90;;;;;;5075515;28;20026;-72
2023/02/08 10:47:02;;;;;;;7.10;2.08;;;2.70;99.90;;;;;;5075843;28;20047;-71
2023/02/08 10:49:41;;;;;;;0.20;0.20;;;2.80;99.90;;;;;;5075371;28;20020;-72
2023/02/08 10:52:07;;;;;;;0.20;0.20;;;2.80;99.90;;;;;;5075512;28;20028;-72
2023/02/08 10:54:33;;;;;;;0.50;0.50;;;2.90;99.90;;;;;;5059905;28;20074;-72
2023/02/08 10:57:03;;;;;;;6.85;4.35;;;2.90;99.90;;;;;;5055346;28;20025;-72
2023/02/08 10:59:48;;;;;;;0.95;0.95;;;3.00;99.90;;;;;;5058631;28;20432;-72
2023/02/08 11:02:25;;;;;;;1.08;0.75;;;2.90;99.90;;;;;;5063481;28;20059;-71
2023/02/08 11:05:30;;;;;;;0.13;0.13;;;3.00;99.90;;;;;;5055849;28;20044;-72
2023/02/08 11:08:07;;;;;;;2.38;2.17;;;3.10;99.90;;;;;;5055516;28;20087;-72
2023/02/08 11:10:34;;;;;;;3.00;2.08;;;3.10;99.90;;;;;;5054076;28;20017;-72
2023/02/08 11:13:16;;;;;;;1.70;1.60;;;3.10;99.90;;;;;;5055296;28;20053;-72
2023/02/08 11:15:46;;;;;;;0.20;0.20;;;3.10;99.90;;;;;;5055112;28;20025;-72
2023/02/08 11:18:32;;;;;;;3.13;1.92;;;3.30;99.90;;;;;;5054970;28;20029;-71
2023/02/08 11:21:32;;;;;;;2.25;2.05;;;3.40;99.90;;;;;;5055702;28;20090;-72
2023/02/08 11:24:01;;;;;;;11.57;5.95;;;3.50;99.90;;;;;;5051097;28;20033;-71
2023/02/08 11:26:29;;;;;;;14.60;2.83;;;3.50;99.90;;;;;;5055065;28;20025;-72
2023/02/08 11:29:16;;;;;;;2.38;2.13;;;3.50;99.90;;;;;;5054946;28;20494;-72
2023/02/08 11:32:00;;;;;;;2.90;2.70;;;3.60;99.90;;;;;;5054481;28;20033;-72
2023/02/08 11:34:27;;;;;;;;;;;3.70;99.90;;;;;;5052922;28;20017;-72
2023/02/08 11:36:52;;;;;;;0.75;0.75;;;3.80;99.90;;;;;;5033366;28;19912;-73
2023/02/08 11:39:38;;;;;;;1.13;1.02;;;4.00;99.90;;;;;;5034748;28;20025;-72
2023/02/08 11:42:05;;;;;;;0.20;0.20;;;4.10;99.90;;;;;;5035758;28;20032;-72
2023/02/08 11:44:35;;;;;;;2.38;2.17;;;4.10;99.90;;;;;;5034781;28;20026;-71
2023/02/08 11:47:04;;;;;;;0.20;0.20;;;4.10;99.90;;;;;;5034881;28;20028;-72
2023/02/08 11:49:58;;;;;;;0.60;0.60;;;4.30;99.90;;;;;;5034514;28;20160;-72
2023/02/08 11:52:28;;;;;;;0.17;0.17;;;4.30;99.90;;;;;;5050329;28;20458;-72
2023/02/08 11:55:12;;;;;;;0.70;0.70;;;4.40;99.90;;;;;;5049805;28;20071;-73
2023/02/08 11:57:50;;;;;;;;;;;4.40;99.90;;;;;;5035159;28;20038;-71
2023/02/08 12:00:21;;;;;;;0.82;0.55;;;4.50;99.90;;;;;;5033737;28;20317;-72
2023/02/08 12:02:49;;;;;;;2.53;1.90;;;4.60;99.90;;;;;;5071931;28;20025;-72
2023/02/08 12:05:17;;;;;;;1.10;1.08;;;4.50;99.90;;;;;;5074082;28;20021;-73
2023/02/08 12:08:02;;;;;;;2.75;2.15;;;4.40;99.90;;;;;;5074671;28;20364;-72
2023/02/08 12:11:05;;;;;;;0.65;0.65;;;4.50;99.90;;;;;;5074039;28;20021;-73
2023/02/08 12:14:00;;;;;;;1.63;1.52;;;4.60;99.90;;;;;;5070122;28;20170;-72
2023/02/08 12:16:37;;;;;;;;;;;4.80;99.90;;;;;;5074147;28;20025;-72
2023/02/08 12:19:41;;;;;;;1.65;1.55;;;4.90;99.90;;;;;;5062137;28;20370;-72
2023/02/08 12:22:12;;;;;;;0.75;0.63;;;5.00;99.90;;;;;;5055844;28;20087;-74
2023/02/08 12:24:54;;;;;;;3.08;2.78;;;5.20;99.90;;;;;;5054322;28;20482;-73
2023/02/08 12:27:34;;;;;;;0.55;0.55;;;5.10;99.90;;;;;;5053792;28;20024;-73
2023/02/08 12:30:15;;;;;;;1.02;1.02;;;5.30;99.90;;;;;;5053716;28;20047;-73
2023/02/08 12:32:57;;;;;;;0.30;0.30;;;5.20;99.90;;;;;;5052452;28;20025;-73
2023/02/08 12:35:45;;;;;;;1.65;1.42;;;5.10;99.90;;;;;;5053556;28;20025;-73
2023/02/08 12:41:14;;;;;;;0.90;0.90;;;5.20;99.90;;;;;;5053422;28;20036;-73
2023/02/08 12:44:02;;;;;;;0.90;0.50;;;5.30;99.90;;;;;;5053685;28;20021;-73
2023/02/08 12:47:04;;;;;;;8.02;2.97;;;5.50;99.90;;;;;;5053441;28;20036;-73
2023/02/08 12:50:00;;;;;;;0.80;0.80;;;5.60;99.90;;;;;;5053657;28;20454;-73
2023/02/08 12:52:40;;;;;;;0.20;0.20;;;5.80;99.90;;;;;;5053073;28;20393;-74
2023/02/08 12:55:18;;;;;;;0.85;0.85;;;6.10;99.90;;;;;;5053488;28;20428;-73
2023/02/08 12:57:48;;;;;;;5.28;1.50;;;6.50;99.90;;;;;;5053689;28;20474;-73
2023/02/08 13:00:27;;;;;;;0.20;0.20;;;6.90;99.90;;;;;;5053668;28;20111;-73
2023/02/08 13:03:10;;;;;;;6.45;3.30;;;6.80;99.90;;;;;;5053396;28;20031;-73
2023/02/08 13:05:38;;;;;;;;;;;7.10;99.90;;;;;;5054008;28;20108;-73
2023/02/08 13:08:23;;;;;;;0.90;0.90;;;7.30;99.90;;;;;;5053130;28;19905;-73
2023/02/08 13:10:54;;;;;;;0.20;0.20;;;7.70;99.90;;;;;;5053332;28;20025;-73
2023/02/08 13:13:28;;;;;;;0.20;0.20;;;8.10;99.90;;;;;;5053019;28;20029;-73